createdAt,value
2022-07-25T00:01:44.009Z,71.97
2022-07-25T00:04:12.683Z,74.86
2022-07-25T00:06:41.796Z,75.39
2022-07-25T00:09:08.980Z,74.62
2022-07-25T00:11:35.728Z,77.44
2022-07-25T00:14:02.444Z,80.66
2022-07-25T00:16:29.317Z,85.55
2022-07-25T00:18:56.074Z,82.13
2022-07-25T00:21:22.769Z,76.84
2022-07-25T00:23:49.662Z,77.33
2022-07-25T00:26:17.079Z,80.71
2022-07-25T00:28:44.085Z,79.34
2022-07-25T00:31:11.181Z,80.85
2022-07-25T00:33:38.031Z,79.88
2022-07-25T00:36:05.059Z,85.39
2022-07-25T00:38:31.670Z,81.35
2022-07-25T00:40:58.337Z,88.17
2022-07-25T00:43:25.021Z,83.01
2022-07-25T00:45:51.668Z,86.37
2022-07-25T00:48:18.464Z,83.52
2022-07-25T00:50:45.109Z,87.68
2022-07-25T00:53:11.778Z,84.88
2022-07-25T00:55:38.755Z,86.28
2022-07-25T00:58:05.352Z,87.81
2022-07-25T01:00:32.385Z,87.07
2022-07-25T01:02:59.428Z,86.74
2022-07-25T01:05:26.360Z,88.24
2022-07-25T01:07:53.648Z,89.92
2022-07-25T01:10:20.280Z,89.61
2022-07-25T01:12:52.385Z,93.19
2022-07-25T01:15:20.515Z,92.46
2022-07-25T01:17:47.452Z,97.18
2022-07-25T01:20:19.052Z,98.04
2022-07-25T01:22:46.374Z,97.35
2022-07-25T01:25:13.904Z,100.00
2022-07-25T01:27:41.435Z,100.00
2022-07-25T01:30:10.212Z,100.00
2022-07-25T01:32:37.562Z,100.00
2022-07-25T01:35:07.096Z,100.00
2022-07-25T01:37:33.945Z,100.00
2022-07-25T01:40:01.191Z,100.00
2022-07-25T01:42:28.275Z,100.00
2022-07-25T01:44:55.341Z,100.00
2022-07-25T01:47:22.446Z,100.00
2022-07-25T01:49:49.033Z,100.00
2022-07-25T01:52:15.724Z,100.00
2022-07-25T01:54:43.565Z,100.00
2022-07-25T01:57:10.859Z,100.00
2022-07-25T01:59:39.425Z,99.56
2022-07-25T02:02:07.901Z,100.00
2022-07-25T02:04:35.675Z,97.53
2022-07-25T02:07:02.838Z,94.83
2022-07-25T02:09:29.471Z,99.12
2022-07-25T02:11:56.344Z,100.00
2022-07-25T02:14:23.756Z,100.00
2022-07-25T02:16:50.490Z,100.00
2022-07-25T02:19:17.208Z,100.00
2022-07-25T02:21:43.834Z,100.00
2022-07-25T02:24:10.522Z,100.00
2022-07-25T02:26:37.217Z,100.00
2022-07-25T02:29:03.906Z,100.00
2022-07-25T02:31:30.558Z,100.00
2022-07-25T02:33:57.227Z,100.00
2022-07-25T02:36:24.125Z,100.00
2022-07-25T02:38:50.835Z,100.00
2022-07-25T02:41:17.579Z,100.00
2022-07-25T02:43:44.156Z,100.00
2022-07-25T02:46:10.893Z,100.00
2022-07-25T02:48:37.635Z,100.00
2022-07-25T02:51:05.559Z,100.00
2022-07-25T02:53:55.577Z,100.00
2022-07-25T02:56:19.124Z,100.00
2022-07-25T02:58:48.075Z,100.00
2022-07-25T03:01:15.265Z,100.00
2022-07-25T03:03:42.239Z,100.00
2022-07-25T03:06:08.946Z,100.00
2022-07-25T03:08:35.598Z,100.00
2022-07-25T03:11:03.298Z,100.00
2022-07-25T03:13:29.963Z,100.00
2022-07-25T03:15:56.539Z,100.00
2022-07-25T03:18:23.121Z,100.00
2022-07-25T03:20:49.805Z,100.00
2022-07-25T03:23:16.445Z,100.00
2022-07-25T03:25:43.057Z,100.00
2022-07-25T03:28:09.755Z,100.00
2022-07-25T03:30:36.341Z,100.00
2022-07-25T03:33:03.000Z,100.00
2022-07-25T03:35:29.587Z,100.00
2022-07-25T03:37:57.369Z,100.00
2022-07-25T03:40:23.979Z,100.00
2022-07-25T03:42:50.582Z,100.00
2022-07-25T03:45:17.949Z,100.00
2022-07-25T03:47:44.700Z,100.00
2022-07-25T03:50:11.540Z,100.00
2022-07-25T03:52:38.526Z,100.00
2022-07-25T03:55:09.863Z,100.00
2022-07-25T03:57:36.931Z,100.00
2022-07-25T04:00:06.250Z,100.00
2022-07-25T04:02:33.391Z,100.00
2022-07-25T04:05:00.122Z,100.00
2022-07-25T04:07:26.820Z,100.00
2022-07-25T04:09:53.466Z,100.00
2022-07-25T04:12:20.190Z,100.00
2022-07-25T04:14:46.854Z,100.00
2022-07-25T04:17:13.501Z,100.00
2022-07-25T04:19:40.233Z,100.00
2022-07-25T04:22:06.985Z,100.00
2022-07-25T04:24:33.597Z,100.00
2022-07-25T04:27:00.198Z,100.00
2022-07-25T04:29:27.089Z,100.00
2022-07-25T04:31:53.735Z,100.00
2022-07-25T04:34:20.680Z,100.00
2022-07-25T04:36:47.264Z,100.00
2022-07-25T04:39:13.922Z,100.00
2022-07-25T04:41:40.504Z,100.00
2022-07-25T04:44:09.091Z,100.00
2022-07-25T04:46:36.106Z,100.00
2022-07-25T04:49:02.907Z,100.00
2022-07-25T04:51:29.576Z,100.00
2022-07-25T04:53:56.259Z,100.00
2022-07-25T04:56:22.900Z,100.00
2022-07-25T04:58:49.649Z,93.62
2022-07-25T05:01:16.367Z,91.10
2022-07-25T05:03:50.153Z,85.47
2022-07-25T05:06:18.858Z,76.15
2022-07-25T05:08:46.300Z,73.10
2022-07-25T05:11:13.119Z,69.82
2022-07-25T05:13:39.708Z,62.54
2022-07-25T05:16:06.594Z,59.43
2022-07-25T05:18:34.859Z,57.45
2022-07-25T05:21:01.702Z,58.45
2022-07-25T05:23:28.282Z,58.36
2022-07-25T05:25:54.920Z,55.79
2022-07-25T05:28:21.489Z,55.17
2022-07-25T05:30:48.095Z,53.72
2022-07-25T05:33:15.007Z,54.11
2022-07-25T05:35:41.882Z,53.93
2022-07-25T05:38:08.552Z,51.49
2022-07-25T05:40:35.164Z,51.85
2022-07-25T05:43:03.539Z,49.89
2022-07-25T05:45:30.990Z,49.53
2022-07-25T05:47:57.567Z,49.94
2022-07-25T05:50:24.305Z,47.56
2022-07-25T05:52:50.988Z,46.41
2022-07-25T05:55:17.900Z,46.05
2022-07-25T05:57:44.507Z,45.09
2022-07-25T06:00:12.050Z,44.26
2022-07-25T06:02:38.858Z,45.10
2022-07-25T06:05:05.933Z,43.25
2022-07-25T06:07:32.485Z,43.33
2022-07-25T06:09:59.092Z,43.02
2022-07-25T06:12:25.702Z,43.73
2022-07-25T06:14:52.591Z,42.86
2022-07-25T06:17:20.127Z,42.20
2022-07-25T06:19:46.931Z,42.20
2022-07-25T06:22:14.536Z,41.65
2022-07-25T06:24:41.537Z,40.92
2022-07-25T06:27:09.019Z,40.48
2022-07-25T06:29:35.827Z,40.36
2022-07-25T06:32:02.757Z,39.95
2022-07-25T06:34:29.571Z,39.15
2022-07-25T06:36:57.665Z,38.96
2022-07-25T06:39:25.095Z,39.80
2022-07-25T06:41:52.206Z,38.54
2022-07-25T06:44:18.879Z,38.19
2022-07-25T06:46:45.554Z,37.52
2022-07-25T06:49:12.448Z,36.86
2022-07-25T06:51:39.135Z,35.55
2022-07-25T06:54:06.266Z,35.77
2022-07-25T06:56:33.194Z,35.27
2022-07-25T06:59:00.641Z,34.55
2022-07-25T07:01:27.888Z,34.76
2022-07-25T07:03:54.892Z,33.32
2022-07-25T07:06:21.744Z,34.05
2022-07-25T07:08:48.400Z,33.69
2022-07-25T07:11:16.837Z,34.18
2022-07-25T07:13:43.519Z,33.51
2022-07-25T07:16:10.258Z,33.12
2022-07-25T07:18:37.558Z,33.65
2022-07-25T07:21:05.456Z,33.28
2022-07-25T07:23:32.823Z,33.04
2022-07-25T07:26:00.895Z,33.40
2022-07-25T07:28:27.510Z,33.18
2022-07-25T07:33:40.709Z,32.27
2022-07-25T07:36:07.587Z,32.16
2022-07-25T07:38:34.621Z,32.67
2022-07-25T07:41:01.222Z,32.49
2022-07-25T07:43:30.416Z,31.01
2022-07-25T07:46:01.144Z,32.10
2022-07-25T07:48:31.137Z,30.96
2022-07-25T07:50:59.462Z,31.38
2022-07-25T07:53:46.237Z,31.38
2022-07-25T07:56:14.036Z,30.75
2022-07-25T07:58:40.761Z,30.80
2022-07-25T08:01:07.703Z,31.05
2022-07-25T08:03:34.523Z,30.69
2022-07-25T08:06:01.169Z,31.06
2022-07-25T08:08:31.060Z,31.25
2022-07-25T08:10:59.329Z,31.13
2022-07-25T08:13:29.070Z,30.53
2022-07-25T08:15:59.576Z,30.29
2022-07-25T08:18:29.709Z,30.33
2022-07-25T08:20:56.519Z,30.46
2022-07-25T08:23:23.340Z,30.07
2022-07-25T08:25:50.087Z,30.22
2022-07-25T08:28:16.843Z,30.39
2022-07-25T08:30:43.791Z,29.59
2022-07-25T08:33:13.620Z,29.09
2022-07-25T08:35:42.041Z,29.33
2022-07-25T08:38:11.653Z,29.47
2022-07-25T08:40:39.156Z,29.30
2022-07-25T08:43:06.005Z,29.82
2022-07-25T08:45:33.417Z,29.25
2022-07-25T08:48:00.136Z,28.75
2022-07-25T08:50:28.880Z,28.60
2022-07-25T08:53:16.570Z,28.03
2022-07-25T08:55:46.857Z,28.35
2022-07-25T08:58:16.199Z,29.15
2022-07-25T09:00:43.843Z,28.54
2022-07-25T09:03:11.405Z,28.04
2022-07-25T09:05:38.882Z,27.55
2022-07-25T09:08:08.693Z,27.27
2022-07-25T09:10:36.935Z,27.56
2022-07-25T09:13:10.983Z,27.33
2022-07-25T09:15:45.334Z,27.59
2022-07-25T09:18:16.052Z,27.31
2022-07-25T09:20:49.378Z,27.64
2022-07-25T09:23:38.538Z,27.46
2022-07-25T09:26:14.986Z,26.99
2022-07-25T09:28:46.462Z,27.14
2022-07-25T09:31:15.016Z,26.97
2022-07-25T09:34:00.409Z,27.03
2022-07-25T09:36:27.455Z,26.41
2022-07-25T09:39:00.973Z,26.87
2022-07-25T09:41:43.833Z,26.80
2022-07-25T09:44:23.023Z,25.98
2022-07-25T09:46:50.585Z,26.14
2022-07-25T09:49:17.482Z,25.93
2022-07-25T09:51:44.306Z,26.59
2022-07-25T09:54:11.755Z,26.85
2022-07-25T09:56:38.519Z,27.33
2022-07-25T09:59:06.146Z,27.04
2022-07-25T10:01:36.965Z,26.42
2022-07-25T10:04:04.107Z,25.55
2022-07-25T10:06:40.085Z,26.41
2022-07-25T10:09:14.001Z,26.00
2022-07-25T10:11:41.481Z,25.29
2022-07-25T10:14:12.804Z,25.80
2022-07-25T10:16:47.046Z,25.76
2022-07-25T10:19:14.248Z,25.28
2022-07-25T10:21:41.156Z,25.04
2022-07-25T10:24:09.993Z,24.64
2022-07-25T10:26:41.750Z,25.38
2022-07-25T10:29:13.997Z,25.33
2022-07-25T10:31:51.027Z,24.88
2022-07-25T10:34:29.158Z,24.98
2022-07-25T10:36:57.411Z,25.02
2022-07-25T10:39:24.251Z,24.54
2022-07-25T10:42:02.425Z,24.15
2022-07-25T10:44:40.509Z,24.44
2022-07-25T10:47:09.541Z,24.10
2022-07-25T10:49:46.439Z,24.33
2022-07-25T10:52:29.486Z,23.31
2022-07-25T10:55:01.137Z,23.81
2022-07-25T10:57:32.006Z,23.94
2022-07-25T11:00:06.990Z,23.50
2022-07-25T11:02:33.902Z,23.34
2022-07-25T11:05:04.479Z,23.53
2022-07-25T11:07:36.122Z,22.99
2022-07-25T11:10:05.200Z,23.11
2022-07-25T11:12:32.459Z,23.12
2022-07-25T11:15:07.603Z,22.21
2022-07-25T11:17:34.826Z,22.46
2022-07-25T11:20:09.481Z,22.56
2022-07-25T11:22:36.298Z,23.34
2022-07-25T11:25:11.034Z,22.79
2022-07-25T11:27:37.651Z,23.35
2022-07-25T11:30:15.458Z,23.60
2022-07-25T11:32:45.015Z,23.35
2022-07-25T11:35:14.005Z,24.11
2022-07-25T11:37:43.487Z,23.74
2022-07-25T11:40:11.060Z,23.39
2022-07-25T11:42:43.650Z,23.74
2022-07-25T11:45:22.137Z,23.78
2022-07-25T11:48:09.153Z,24.31
2022-07-25T11:50:38.221Z,23.99
2022-07-25T11:53:06.897Z,24.43
2022-07-25T11:55:37.377Z,24.39
2022-07-25T11:58:04.787Z,24.35
2022-07-25T12:00:35.810Z,23.61
2022-07-25T12:03:12.976Z,24.25
2022-07-25T12:05:42.790Z,24.32
2022-07-25T12:08:20.919Z,25.09
2022-07-25T12:10:49.318Z,24.13
2022-07-25T12:13:30.205Z,24.46
2022-07-25T12:15:58.554Z,24.60
2022-07-25T12:18:25.806Z,24.55
2022-07-25T12:20:53.306Z,24.93
2022-07-25T12:23:21.762Z,24.75
2022-07-25T12:25:48.448Z,25.09
2022-07-25T12:28:15.267Z,24.32
2022-07-25T12:30:44.064Z,23.50
2022-07-25T12:33:11.887Z,23.70
2022-07-25T12:35:40.071Z,23.97
2022-07-25T12:38:06.781Z,24.64
2022-07-25T12:40:33.856Z,24.93
2022-07-25T12:43:01.237Z,23.75
2022-07-25T12:45:28.040Z,24.32
2022-07-25T12:47:55.092Z,23.70
2022-07-25T12:50:21.743Z,22.95
2022-07-25T12:52:48.718Z,23.51
2022-07-25T12:55:17.755Z,23.29
2022-07-25T12:57:44.834Z,23.07
2022-07-25T13:00:14.213Z,23.60
2022-07-25T13:02:40.937Z,23.16
2022-07-25T13:05:08.109Z,23.32
2022-07-25T13:07:35.030Z,23.87
2022-07-25T13:10:03.698Z,24.84
2022-07-25T13:12:30.544Z,23.31
2022-07-25T13:14:57.566Z,23.12
2022-07-25T13:17:27.547Z,23.51
2022-07-25T13:19:55.143Z,22.99
2022-07-25T13:22:21.754Z,24.17
2022-07-25T13:24:48.412Z,24.24
2022-07-25T13:27:17.742Z,23.64
2022-07-25T13:29:44.355Z,23.31
2022-07-25T13:32:12.108Z,22.94
2022-07-25T13:34:38.936Z,22.78
2022-07-25T13:37:06.124Z,23.35
2022-07-25T13:39:33.744Z,23.20
2022-07-25T13:42:00.446Z,22.98
2022-07-25T13:44:27.083Z,22.81
2022-07-25T13:46:53.785Z,22.81
2022-07-25T13:49:20.499Z,23.08
2022-07-25T13:51:47.659Z,23.44
2022-07-25T13:54:14.448Z,23.33
2022-07-25T13:56:42.510Z,23.68
2022-07-25T13:59:09.873Z,23.20
2022-07-25T14:01:37.040Z,22.58
2022-07-25T14:04:03.701Z,22.50
2022-07-25T14:06:30.296Z,23.03
2022-07-25T14:08:56.903Z,22.08
2022-07-25T14:11:27.319Z,21.92
2022-07-25T14:13:57.479Z,22.89
2022-07-25T14:16:24.180Z,23.02
2022-07-25T14:18:50.930Z,22.48
2022-07-25T14:21:17.542Z,22.41
2022-07-25T14:23:44.131Z,21.69
2022-07-25T14:26:10.791Z,22.31
2022-07-25T14:28:37.539Z,21.62
2022-07-25T14:31:04.307Z,21.57
2022-07-25T14:33:31.135Z,21.64
2022-07-25T14:35:57.730Z,22.29
2022-07-25T14:38:24.374Z,21.69
2022-07-25T14:40:51.494Z,20.80
2022-07-25T14:43:18.138Z,21.40
2022-07-25T14:45:44.880Z,21.36
2022-07-25T14:48:11.542Z,21.38
2022-07-25T14:50:38.126Z,21.12
2022-07-25T14:53:04.774Z,21.51
2022-07-25T14:55:31.602Z,21.73
2022-07-25T14:58:02.361Z,20.94
2022-07-25T15:00:29.774Z,22.74
2022-07-25T15:02:56.876Z,21.67
2022-07-25T15:05:23.597Z,21.55
2022-07-25T15:07:50.207Z,22.64
2022-07-25T15:10:17.412Z,22.46
2022-07-25T15:12:44.052Z,22.21
2022-07-25T15:15:11.564Z,22.15
2022-07-25T15:17:39.201Z,22.32
2022-07-25T15:20:06.497Z,23.20
2022-07-25T15:22:33.130Z,22.50
2022-07-25T15:25:37.244Z,21.56
2022-07-25T15:27:46.360Z,20.54
2022-07-25T15:30:13.127Z,20.04
2022-07-25T15:32:40.278Z,20.65
2022-07-25T15:35:08.426Z,19.55
2022-07-25T15:37:35.512Z,19.33
2022-07-25T15:40:02.535Z,19.27
2022-07-25T15:42:29.628Z,19.10
2022-07-25T15:45:22.276Z,19.25
2022-07-25T15:47:46.245Z,19.35
2022-07-25T15:50:20.319Z,19.14
2022-07-25T15:52:47.185Z,19.52
2022-07-25T15:55:13.895Z,19.77
2022-07-25T15:57:40.774Z,19.75
2022-07-25T16:00:08.905Z,19.88
2022-07-25T16:02:36.112Z,19.55
2022-07-25T16:05:04.179Z,20.11
2022-07-25T16:07:30.990Z,20.40
2022-07-25T16:09:57.613Z,19.39
2022-07-25T16:12:28.322Z,20.74
2022-07-25T16:14:56.088Z,20.50
2022-07-25T16:17:23.227Z,20.48
2022-07-25T16:19:49.820Z,20.81
2022-07-25T16:22:16.442Z,20.91
2022-07-25T16:24:43.072Z,21.34
2022-07-25T16:27:10.133Z,21.37
2022-07-25T16:29:37.143Z,21.45
2022-07-25T16:32:03.922Z,21.31
2022-07-25T16:34:30.524Z,21.70
2022-07-25T16:36:57.434Z,22.40
2022-07-25T16:39:24.060Z,22.23
2022-07-25T16:41:52.004Z,22.37
2022-07-25T16:44:18.715Z,22.10
2022-07-25T16:46:45.527Z,22.87
2022-07-25T16:49:15.337Z,23.11
2022-07-25T16:51:45.320Z,23.56
2022-07-25T16:54:12.276Z,23.74
2022-07-25T16:56:39.056Z,24.06
2022-07-25T16:59:06.856Z,23.94
2022-07-25T17:01:35.138Z,24.37
2022-07-25T17:04:01.848Z,25.26
2022-07-25T17:06:28.804Z,25.06
2022-07-25T17:08:55.500Z,25.50
2022-07-25T17:11:22.615Z,25.59
2022-07-25T17:13:49.255Z,26.06
2022-07-25T17:16:16.279Z,25.47
2022-07-25T17:18:43.009Z,25.81
2022-07-25T17:21:10.767Z,26.28
2022-07-25T17:23:37.407Z,26.68
2022-07-25T17:26:05.472Z,26.79
2022-07-25T17:28:32.448Z,26.84
2022-07-25T17:30:59.251Z,26.97
2022-07-25T17:33:26.447Z,27.30
2022-07-25T17:35:53.209Z,29.00
2022-07-25T17:38:25.333Z,29.39
2022-07-25T17:40:52.842Z,30.08
2022-07-25T17:43:19.775Z,29.13
2022-07-25T17:45:46.356Z,29.42
2022-07-25T17:48:12.936Z,28.90
2022-07-25T17:50:39.572Z,30.22
2022-07-25T17:53:06.192Z,29.99
2022-07-25T17:55:38.215Z,30.29
2022-07-25T17:58:05.659Z,29.99
2022-07-25T18:00:32.483Z,30.03
2022-07-25T18:02:59.274Z,30.38
2022-07-25T18:05:26.126Z,30.14
2022-07-25T18:07:53.947Z,30.23
2022-07-25T18:10:23.686Z,30.37
2022-07-25T18:12:50.855Z,30.56
2022-07-25T18:15:17.824Z,31.86
2022-07-25T18:17:45.927Z,30.88
2022-07-25T18:20:14.086Z,31.57
2022-07-25T18:22:41.548Z,31.18
2022-07-25T18:25:11.525Z,30.98
2022-07-25T18:27:45.540Z,31.60
2022-07-25T18:30:13.673Z,31.61
2022-07-25T18:32:40.832Z,32.11
2022-07-25T18:35:08.065Z,33.28
2022-07-25T18:37:40.299Z,33.42
2022-07-25T18:40:08.651Z,33.39
2022-07-25T18:42:36.492Z,33.51
2022-07-25T18:45:05.023Z,33.48
2022-07-25T18:47:34.924Z,34.04
2022-07-25T18:50:01.876Z,33.96
2022-07-25T18:52:34.694Z,34.04
2022-07-25T18:55:06.549Z,34.47
2022-07-25T18:57:33.575Z,34.44
2022-07-25T19:00:03.097Z,34.76
2022-07-25T19:02:30.328Z,35.23
2022-07-25T19:04:57.063Z,35.49
2022-07-25T19:07:23.836Z,35.83
2022-07-25T19:09:50.450Z,36.00
2022-07-25T19:12:17.198Z,36.09
2022-07-25T19:14:44.263Z,36.22
2022-07-25T19:17:10.929Z,36.57
2022-07-25T19:19:37.576Z,36.21
2022-07-25T19:22:04.153Z,37.11
2022-07-25T19:24:31.479Z,37.21
2022-07-25T19:26:58.958Z,37.31
2022-07-25T19:29:26.833Z,37.36
2022-07-25T19:31:54.485Z,38.17
2022-07-25T19:34:21.184Z,37.56
2022-07-25T19:36:47.825Z,37.47
2022-07-25T19:39:14.915Z,37.94
2022-07-25T19:41:46.742Z,38.30
2022-07-25T19:44:13.968Z,39.03
2022-07-25T19:46:40.765Z,40.45
2022-07-25T19:49:07.995Z,40.53
2022-07-25T19:51:34.805Z,42.19
2022-07-25T19:54:03.434Z,41.99
2022-07-25T19:56:30.969Z,40.82
2022-07-25T19:58:58.323Z,41.44
2022-07-25T20:01:25.050Z,40.73
2022-07-25T20:03:51.720Z,39.61
2022-07-25T20:06:20.659Z,39.87
2022-07-25T20:08:50.828Z,39.96
2022-07-25T20:11:17.734Z,42.28
2022-07-25T20:13:44.473Z,42.64
2022-07-25T20:16:11.223Z,42.85
2022-07-25T20:18:37.929Z,42.94
2022-07-25T20:21:05.162Z,45.71
2022-07-25T20:23:31.939Z,47.42
2022-07-25T20:26:00.135Z,46.85
2022-07-25T20:28:27.241Z,47.65
2022-07-25T20:30:56.034Z,47.67
2022-07-25T20:33:26.910Z,47.53
2022-07-25T20:35:54.988Z,48.91
2022-07-25T20:38:28.270Z,48.73
2022-07-25T20:40:55.904Z,50.19
2022-07-25T20:43:22.528Z,49.47
2022-07-25T20:45:49.170Z,51.33
2022-07-25T20:48:15.994Z,50.14
2022-07-25T20:50:43.907Z,50.71
2022-07-25T20:53:10.623Z,51.04
2022-07-25T20:55:37.532Z,51.58
2022-07-25T20:58:05.159Z,52.70
2022-07-25T21:00:31.965Z,51.67
2022-07-25T21:02:59.575Z,55.01
2022-07-25T21:05:27.003Z,56.67
2022-07-25T21:07:53.867Z,59.52
2022-07-25T21:10:21.126Z,58.75
2022-07-25T21:12:47.779Z,57.85
2022-07-25T21:15:14.761Z,62.42
2022-07-25T21:17:44.160Z,59.27
2022-07-25T21:20:12.759Z,60.05
2022-07-25T21:22:40.556Z,59.20
2022-07-25T21:25:07.559Z,59.34
2022-07-25T21:27:34.578Z,59.36
2022-07-25T21:30:01.291Z,58.37
2022-07-25T21:32:28.108Z,59.04
2022-07-25T21:34:54.805Z,58.96
2022-07-25T21:37:21.500Z,57.99
2022-07-25T21:39:48.131Z,57.53
2022-07-25T21:42:14.852Z,60.50
2022-07-25T21:44:43.140Z,62.15
2022-07-25T21:47:10.485Z,59.93
2022-07-25T21:49:56.006Z,63.42
2022-07-25T21:52:31.326Z,65.94
2022-07-25T21:55:02.879Z,65.33
2022-07-25T21:57:29.528Z,67.02
2022-07-25T21:59:56.284Z,66.40
2022-07-25T22:02:23.519Z,67.26
2022-07-25T22:04:50.638Z,68.17
2022-07-25T22:07:17.918Z,69.34
2022-07-25T22:09:45.088Z,70.94
2022-07-25T22:12:11.850Z,72.50
2022-07-25T22:14:38.505Z,72.63
2022-07-25T22:17:05.863Z,72.75
2022-07-25T22:19:33.422Z,75.61
2022-07-25T22:22:00.367Z,74.16
2022-07-25T22:24:27.216Z,70.48
2022-07-25T22:26:54.086Z,63.29
2022-07-25T22:29:20.645Z,55.02
2022-07-25T22:31:47.385Z,56.87
2022-07-25T22:34:14.029Z,55.06
2022-07-25T22:36:40.720Z,55.56
2022-07-25T22:39:07.621Z,55.67
2022-07-25T22:41:34.870Z,54.95
2022-07-25T22:44:01.930Z,55.04
2022-07-25T22:46:30.274Z,56.03
2022-07-25T22:48:58.292Z,56.35
2022-07-25T22:51:26.534Z,56.40
2022-07-25T22:53:53.513Z,56.37
2022-07-25T22:56:20.241Z,55.23
2022-07-25T22:58:49.148Z,57.22
2022-07-25T23:01:17.311Z,57.93
2022-07-25T23:03:44.056Z,59.42
2022-07-25T23:06:11.331Z,59.09
2022-07-25T23:08:38.002Z,60.25
2022-07-25T23:11:06.218Z,59.20
2022-07-25T23:13:34.331Z,60.02
2022-07-25T23:16:01.931Z,60.67
2022-07-25T23:18:30.732Z,63.23
2022-07-25T23:20:57.408Z,63.01
2022-07-25T23:23:24.022Z,63.37
2022-07-25T23:25:50.620Z,62.31
2022-07-25T23:28:17.604Z,62.28
2022-07-25T23:30:44.242Z,61.57
2022-07-25T23:33:10.849Z,60.46
2022-07-25T23:35:37.836Z,63.13
2022-07-25T23:38:04.603Z,62.92
2022-07-25T23:40:31.385Z,63.46
2022-07-25T23:42:58.030Z,65.21
2022-07-25T23:45:27.516Z,64.70
2022-07-25T23:47:55.062Z,64.20
2022-07-25T23:50:22.724Z,65.49
2022-07-25T23:52:49.476Z,65.76
2022-07-25T23:55:16.162Z,66.40
2022-07-25T23:57:43.231Z,65.71
